Terminal Aerodrome Forecast
Issued by NWS Louisville, KY

Home | Current Version | Previous Version | Text Only | Print | Product List | Glossary On
Versions: 1 2 3 4 5 6 7 8 9 10 11 12 13 14 15 16 17 18
071
FTUS43 KLMK 131733
TAFLEX
TAF
KLEX 131733Z 1318/1418 06005KT P6SM FEW050 FEW250
     FM141200 VRB03KT P6SM VCSH BKN045 BKN080=

USA.gov is the U.S. government's official web portal to all federal, state and local government web resources and services.